sensor_id;sensor_type;location;lat;lon;timestamp;P1;durP1;ratioP1;P2;durP2;ratioP2
51758;SDS011;66684;47.568;18.734;2023-03-23T00:02:14;16.92;;;10.98;;
51758;SDS011;66684;47.568;18.734;2023-03-23T00:04:40;20.83;;;11.18;;
51758;SDS011;66684;47.568;18.734;2023-03-23T00:07:08;20.33;;;11.50;;
51758;SDS011;66684;47.568;18.734;2023-03-23T00:09:34;14.93;;;10.35;;
51758;SDS011;66684;47.568;18.734;2023-03-23T00:12:06;20.42;;;10.63;;
51758;SDS011;66684;47.568;18.734;2023-03-23T00:14:33;16.17;;;10.73;;
51758;SDS011;66684;47.568;18.734;2023-03-23T00:17:09;19.37;;;10.88;;
51758;SDS011;66684;47.568;18.734;2023-03-23T00:19:37;16.35;;;10.63;;
51758;SDS011;66684;47.568;18.734;2023-03-23T00:22:17;17.67;;;10.52;;
51758;SDS011;66684;47.568;18.734;2023-03-23T00:24:45;19.83;;;10.73;;
51758;SDS011;66684;47.568;18.734;2023-03-23T00:27:11;16.05;;;10.48;;
51758;SDS011;66684;47.568;18.734;2023-03-23T00:29:40;17.60;;;10.77;;
51758;SDS011;66684;47.568;18.734;2023-03-23T00:32:08;18.40;;;11.48;;
51758;SDS011;66684;47.568;18.734;2023-03-23T00:34:40;17.45;;;10.57;;
51758;SDS011;66684;47.568;18.734;2023-03-23T00:37:08;18.58;;;10.90;;
51758;SDS011;66684;47.568;18.734;2023-03-23T00:39:35;17.98;;;10.50;;
51758;SDS011;66684;47.568;18.734;2023-03-23T00:42:04;20.02;;;10.98;;
51758;SDS011;66684;47.568;18.734;2023-03-23T00:44:32;17.98;;;11.18;;
51758;SDS011;66684;47.568;18.734;2023-03-23T00:47:00;17.65;;;10.20;;
51758;SDS011;66684;47.568;18.734;2023-03-23T00:49:27;15.88;;;10.18;;
51758;SDS011;66684;47.568;18.734;2023-03-23T00:51:53;17.42;;;10.30;;
51758;SDS011;66684;47.568;18.734;2023-03-23T00:54:21;17.62;;;9.68;;
51758;SDS011;66684;47.568;18.734;2023-03-23T00:56:47;16.55;;;10.27;;
51758;SDS011;66684;47.568;18.734;2023-03-23T00:59:13;18.05;;;10.50;;
51758;SDS011;66684;47.568;18.734;2023-03-23T01:01:40;16.80;;;9.43;;
51758;SDS011;66684;47.568;18.734;2023-03-23T01:04:06;15.77;;;10.20;;
51758;SDS011;66684;47.568;18.734;2023-03-23T01:06:33;19.95;;;10.43;;
51758;SDS011;66684;47.568;18.734;2023-03-23T01:09:07;17.58;;;9.65;;
51758;SDS011;66684;47.568;18.734;2023-03-23T01:11:42;14.87;;;9.38;;
51758;SDS011;66684;47.568;18.734;2023-03-23T01:14:10;14.48;;;10.00;;
51758;SDS011;66684;47.568;18.734;2023-03-23T01:16:37;17.90;;;9.50;;
51758;SDS011;66684;47.568;18.734;2023-03-23T01:19:03;14.00;;;8.98;;
51758;SDS011;66684;47.568;18.734;2023-03-23T01:21:30;13.23;;;8.43;;
51758;SDS011;66684;47.568;18.734;2023-03-23T01:23:56;13.77;;;8.70;;
51758;SDS011;66684;47.568;18.734;2023-03-23T01:26:23;13.40;;;8.85;;
51758;SDS011;66684;47.568;18.734;2023-03-23T01:28:51;14.55;;;8.73;;
51758;SDS011;66684;47.568;18.734;2023-03-23T01:31:19;11.93;;;8.52;;
51758;SDS011;66684;47.568;18.734;2023-03-23T01:33:47;14.55;;;8.77;;
51758;SDS011;66684;47.568;18.734;2023-03-23T01:36:14;15.63;;;8.73;;
51758;SDS011;66684;47.568;18.734;2023-03-23T01:38:43;14.77;;;8.10;;
51758;SDS011;66684;47.568;18.734;2023-03-23T01:41:10;16.75;;;8.05;;
51758;SDS011;66684;47.568;18.734;2023-03-23T01:43:53;12.37;;;7.62;;
51758;SDS011;66684;47.568;18.734;2023-03-23T01:46:19;13.98;;;7.40;;
51758;SDS011;66684;47.568;18.734;2023-03-23T01:48:47;14.15;;;8.25;;
51758;SDS011;66684;47.568;18.734;2023-03-23T01:51:15;12.15;;;7.43;;
51758;SDS011;66684;47.568;18.734;2023-03-23T01:53:52;12.20;;;7.10;;
51758;SDS011;66684;47.568;18.734;2023-03-23T01:56:24;12.27;;;7.82;;
51758;SDS011;66684;47.568;18.734;2023-03-23T01:58:55;11.98;;;7.40;;
51758;SDS011;66684;47.568;18.734;2023-03-23T02:01:22;11.15;;;6.95;;
51758;SDS011;66684;47.568;18.734;2023-03-23T02:03:50;10.35;;;6.62;;
51758;SDS011;66684;47.568;18.734;2023-03-23T02:06:20;13.50;;;6.90;;
51758;SDS011;66684;47.568;18.734;2023-03-23T02:08:47;9.43;;;6.85;;
51758;SDS011;66684;47.568;18.734;2023-03-23T02:11:18;8.90;;;6.15;;
51758;SDS011;66684;47.568;18.734;2023-03-23T02:13:46;11.40;;;6.87;;
51758;SDS011;66684;47.568;18.734;2023-03-23T02:38:57;12.90;;;5.72;;
51758;SDS011;66684;47.568;18.734;2023-03-23T02:41:34;10.38;;;6.05;;
51758;SDS011;66684;47.568;18.734;2023-03-23T02:44:05;11.82;;;5.95;;
51758;SDS011;66684;47.568;18.734;2023-03-23T02:46:33;8.80;;;5.57;;
51758;SDS011;66684;47.568;18.734;2023-03-23T02:49:01;8.93;;;5.45;;
51758;SDS011;66684;47.568;18.734;2023-03-23T02:51:29;9.02;;;5.53;;
51758;SDS011;66684;47.568;18.734;2023-03-23T02:53:55;8.63;;;5.43;;
51758;SDS011;66684;47.568;18.734;2023-03-23T02:56:23;9.57;;;5.22;;
51758;SDS011;66684;47.568;18.734;2023-03-23T02:58:53;11.43;;;5.87;;
51758;SDS011;66684;47.568;18.734;2023-03-23T03:03:54;8.25;;;5.35;;
51758;SDS011;66684;47.568;18.734;2023-03-23T03:08:57;10.77;;;5.17;;
51758;SDS011;66684;47.568;18.734;2023-03-23T03:11:26;7.87;;;5.13;;
51758;SDS011;66684;47.568;18.734;2023-03-23T03:14:04;7.93;;;4.85;;
51758;SDS011;66684;47.568;18.734;2023-03-23T03:19:19;14.52;;;5.25;;
51758;SDS011;66684;47.568;18.734;2023-03-23T03:21:52;9.30;;;5.28;;
51758;SDS011;66684;47.568;18.734;2023-03-23T03:24:20;9.07;;;5.57;;
51758;SDS011;66684;47.568;18.734;2023-03-23T03:26:50;11.55;;;5.43;;
51758;SDS011;66684;47.568;18.734;2023-03-23T03:29:18;9.23;;;5.68;;
51758;SDS011;66684;47.568;18.734;2023-03-23T03:31:49;8.23;;;5.20;;
51758;SDS011;66684;47.568;18.734;2023-03-23T03:34:17;11.40;;;5.70;;
51758;SDS011;66684;47.568;18.734;2023-03-23T03:36:43;8.48;;;5.65;;
51758;SDS011;66684;47.568;18.734;2023-03-23T03:39:12;8.18;;;4.75;;
51758;SDS011;66684;47.568;18.734;2023-03-23T03:41:40;7.82;;;5.10;;
51758;SDS011;66684;47.568;18.734;2023-03-23T03:44:07;8.02;;;5.07;;
51758;SDS011;66684;47.568;18.734;2023-03-23T03:46:33;8.30;;;5.28;;
51758;SDS011;66684;47.568;18.734;2023-03-23T03:49:01;8.80;;;5.32;;
51758;SDS011;66684;47.568;18.734;2023-03-23T03:51:29;8.23;;;5.20;;
51758;SDS011;66684;47.568;18.734;2023-03-23T03:53:55;9.38;;;5.45;;
51758;SDS011;66684;47.568;18.734;2023-03-23T03:56:22;8.82;;;5.50;;
51758;SDS011;66684;47.568;18.734;2023-03-23T03:58:49;9.02;;;4.95;;
51758;SDS011;66684;47.568;18.734;2023-03-23T04:01:16;9.20;;;5.57;;
51758;SDS011;66684;47.568;18.734;2023-03-23T04:03:44;8.63;;;5.05;;
51758;SDS011;66684;47.568;18.734;2023-03-23T04:06:10;7.35;;;5.03;;
51758;SDS011;66684;47.568;18.734;2023-03-23T04:08:39;8.45;;;5.35;;
51758;SDS011;66684;47.568;18.734;2023-03-23T04:11:07;9.00;;;5.37;;
51758;SDS011;66684;47.568;18.734;2023-03-23T04:13:34;10.93;;;5.30;;
51758;SDS011;66684;47.568;18.734;2023-03-23T04:16:00;7.35;;;5.37;;
51758;SDS011;66684;47.568;18.734;2023-03-23T04:18:26;9.02;;;5.12;;
51758;SDS011;66684;47.568;18.734;2023-03-23T04:20:52;10.13;;;5.68;;
51758;SDS011;66684;47.568;18.734;2023-03-23T04:23:18;8.85;;;5.28;;
51758;SDS011;66684;47.568;18.734;2023-03-23T04:25:47;7.78;;;5.32;;
51758;SDS011;66684;47.568;18.734;2023-03-23T04:28:15;8.10;;;5.45;;
51758;SDS011;66684;47.568;18.734;2023-03-23T04:30:49;8.60;;;5.37;;
51758;SDS011;66684;47.568;18.734;2023-03-23T04:33:20;8.18;;;5.12;;
51758;SDS011;66684;47.568;18.734;2023-03-23T04:35:48;8.55;;;4.82;;
51758;SDS011;66684;47.568;18.734;2023-03-23T04:38:14;7.95;;;5.12;;
51758;SDS011;66684;47.568;18.734;2023-03-23T04:40:43;9.80;;;5.62;;
51758;SDS011;66684;47.568;18.734;2023-03-23T04:43:09;6.85;;;5.22;;
51758;SDS011;66684;47.568;18.734;2023-03-23T04:45:38;9.95;;;5.50;;
51758;SDS011;66684;47.568;18.734;2023-03-23T04:48:07;9.60;;;5.72;;
51758;SDS011;66684;47.568;18.734;2023-03-23T04:50:34;8.10;;;5.05;;
51758;SDS011;66684;47.568;18.734;2023-03-23T04:53:00;10.52;;;5.82;;
51758;SDS011;66684;47.568;18.734;2023-03-23T04:55:31;9.63;;;5.70;;
51758;SDS011;66684;47.568;18.734;2023-03-23T04:58:02;8.63;;;5.55;;
51758;SDS011;66684;47.568;18.734;2023-03-23T05:00:33;12.43;;;5.70;;
51758;SDS011;66684;47.568;18.734;2023-03-23T05:03:00;9.18;;;5.68;;
51758;SDS011;66684;47.568;18.734;2023-03-23T05:05:26;13.18;;;5.82;;
51758;SDS011;66684;47.568;18.734;2023-03-23T05:07:54;8.90;;;6.10;;
51758;SDS011;66684;47.568;18.734;2023-03-23T05:10:20;18.05;;;6.82;;
51758;SDS011;66684;47.568;18.734;2023-03-23T05:12:47;14.52;;;7.03;;
51758;SDS011;66684;47.568;18.734;2023-03-23T05:15:13;8.90;;;6.00;;
51758;SDS011;66684;47.568;18.734;2023-03-23T05:17:41;10.63;;;5.90;;
51758;SDS011;66684;47.568;18.734;2023-03-23T05:20:09;11.80;;;6.20;;
51758;SDS011;66684;47.568;18.734;2023-03-23T05:22:37;13.25;;;6.35;;
51758;SDS011;66684;47.568;18.734;2023-03-23T05:25:04;16.08;;;6.85;;
51758;SDS011;66684;47.568;18.734;2023-03-23T05:27:31;13.38;;;6.20;;
51758;SDS011;66684;47.568;18.734;2023-03-23T05:29:58;21.12;;;6.95;;
51758;SDS011;66684;47.568;18.734;2023-03-23T05:32:25;12.18;;;8.75;;
51758;SDS011;66684;47.568;18.734;2023-03-23T05:34:55;22.35;;;11.20;;
51758;SDS011;66684;47.568;18.734;2023-03-23T05:37:22;22.77;;;11.15;;
51758;SDS011;66684;47.568;18.734;2023-03-23T05:39:48;22.23;;;11.32;;
51758;SDS011;66684;47.568;18.734;2023-03-23T05:42:19;32.92;;;11.80;;
51758;SDS011;66684;47.568;18.734;2023-03-23T05:44:46;20.98;;;11.38;;
51758;SDS011;66684;47.568;18.734;2023-03-23T05:47:13;19.52;;;10.63;;
51758;SDS011;66684;47.568;18.734;2023-03-23T05:49:39;16.90;;;10.90;;
51758;SDS011;66684;47.568;18.734;2023-03-23T05:52:05;27.73;;;11.18;;
51758;SDS011;66684;47.568;18.734;2023-03-23T05:54:30;17.90;;;10.23;;
51758;SDS011;66684;47.568;18.734;2023-03-23T05:56:56;19.42;;;10.90;;
51758;SDS011;66684;47.568;18.734;2023-03-23T05:59:23;16.42;;;10.80;;
51758;SDS011;66684;47.568;18.734;2023-03-23T06:01:50;22.67;;;12.07;;
51758;SDS011;66684;47.568;18.734;2023-03-23T06:04:17;19.92;;;12.48;;
51758;SDS011;66684;47.568;18.734;2023-03-23T06:06:42;18.87;;;12.85;;
51758;SDS011;66684;47.568;18.734;2023-03-23T06:09:09;17.85;;;12.43;;
51758;SDS011;66684;47.568;18.734;2023-03-23T06:11:35;20.37;;;11.95;;
51758;SDS011;66684;47.568;18.734;2023-03-23T06:14:01;20.27;;;12.23;;
51758;SDS011;66684;47.568;18.734;2023-03-23T06:16:27;17.30;;;11.27;;
51758;SDS011;66684;47.568;18.734;2023-03-23T06:18:53;19.08;;;11.50;;
51758;SDS011;66684;47.568;18.734;2023-03-23T06:21:19;21.20;;;11.30;;
51758;SDS011;66684;47.568;18.734;2023-03-23T06:23:47;15.32;;;9.60;;
51758;SDS011;66684;47.568;18.734;2023-03-23T06:26:14;16.92;;;9.02;;
51758;SDS011;66684;47.568;18.734;2023-03-23T06:28:42;16.12;;;8.20;;
51758;SDS011;66684;47.568;18.734;2023-03-23T06:31:08;14.45;;;8.35;;
51758;SDS011;66684;47.568;18.734;2023-03-23T06:33:35;17.20;;;9.73;;
51758;SDS011;66684;47.568;18.734;2023-03-23T06:36:03;15.52;;;8.98;;
51758;SDS011;66684;47.568;18.734;2023-03-23T06:38:30;13.55;;;8.85;;
51758;SDS011;66684;47.568;18.734;2023-03-23T06:40:57;14.20;;;8.75;;
51758;SDS011;66684;47.568;18.734;2023-03-23T06:43:23;14.85;;;8.60;;
51758;SDS011;66684;47.568;18.734;2023-03-23T06:45:49;13.45;;;8.65;;
51758;SDS011;66684;47.568;18.734;2023-03-23T06:48:16;15.15;;;8.55;;
51758;SDS011;66684;47.568;18.734;2023-03-23T06:50:43;16.23;;;9.20;;
51758;SDS011;66684;47.568;18.734;2023-03-23T06:53:10;15.48;;;9.18;;
51758;SDS011;66684;47.568;18.734;2023-03-23T06:55:37;13.38;;;8.90;;
51758;SDS011;66684;47.568;18.734;2023-03-23T06:58:04;15.63;;;9.60;;
51758;SDS011;66684;47.568;18.734;2023-03-23T07:00:32;16.05;;;9.45;;
51758;SDS011;66684;47.568;18.734;2023-03-23T07:02:58;16.75;;;9.32;;
51758;SDS011;66684;47.568;18.734;2023-03-23T07:05:24;14.02;;;9.27;;
51758;SDS011;66684;47.568;18.734;2023-03-23T07:07:50;15.00;;;9.07;;
51758;SDS011;66684;47.568;18.734;2023-03-23T07:10:16;19.90;;;9.07;;
51758;SDS011;66684;47.568;18.734;2023-03-23T07:12:43;15.23;;;9.27;;
51758;SDS011;66684;47.568;18.734;2023-03-23T07:15:09;15.57;;;9.20;;
51758;SDS011;66684;47.568;18.734;2023-03-23T07:17:36;15.35;;;9.52;;
51758;SDS011;66684;47.568;18.734;2023-03-23T07:20:03;22.77;;;12.75;;
51758;SDS011;66684;47.568;18.734;2023-03-23T07:22:30;28.25;;;10.45;;
51758;SDS011;66684;47.568;18.734;2023-03-23T07:24:56;21.25;;;10.40;;
51758;SDS011;66684;47.568;18.734;2023-03-23T07:27:22;13.85;;;9.32;;
51758;SDS011;66684;47.568;18.734;2023-03-23T07:29:48;16.58;;;10.05;;
51758;SDS011;66684;47.568;18.734;2023-03-23T07:32:14;16.58;;;10.13;;
51758;SDS011;66684;47.568;18.734;2023-03-23T07:34:40;22.52;;;10.50;;
51758;SDS011;66684;47.568;18.734;2023-03-23T07:37:07;18.27;;;11.02;;
51758;SDS011;66684;47.568;18.734;2023-03-23T07:39:33;17.17;;;10.88;;
51758;SDS011;66684;47.568;18.734;2023-03-23T07:41:59;18.87;;;10.95;;
51758;SDS011;66684;47.568;18.734;2023-03-23T07:44:25;17.70;;;11.07;;
51758;SDS011;66684;47.568;18.734;2023-03-23T07:46:51;13.80;;;9.98;;
51758;SDS011;66684;47.568;18.734;2023-03-23T07:49:17;19.08;;;11.23;;
51758;SDS011;66684;47.568;18.734;2023-03-23T07:51:44;15.52;;;10.20;;
51758;SDS011;66684;47.568;18.734;2023-03-23T07:54:11;15.25;;;10.25;;
51758;SDS011;66684;47.568;18.734;2023-03-23T07:56:37;18.45;;;10.65;;
51758;SDS011;66684;47.568;18.734;2023-03-23T07:59:05;15.85;;;9.95;;
51758;SDS011;66684;47.568;18.734;2023-03-23T08:01:32;14.98;;;9.63;;
51758;SDS011;66684;47.568;18.734;2023-03-23T08:03:58;19.98;;;9.48;;
51758;SDS011;66684;47.568;18.734;2023-03-23T08:06:25;16.60;;;8.80;;
51758;SDS011;66684;47.568;18.734;2023-03-23T08:08:52;15.95;;;9.48;;
51758;SDS011;66684;47.568;18.734;2023-03-23T08:11:19;12.73;;;8.80;;
51758;SDS011;66684;47.568;18.734;2023-03-23T08:13:46;15.40;;;9.38;;
51758;SDS011;66684;47.568;18.734;2023-03-23T08:16:12;12.27;;;8.38;;
51758;SDS011;66684;47.568;18.734;2023-03-23T08:18:39;12.10;;;8.93;;
51758;SDS011;66684;47.568;18.734;2023-03-23T08:21:06;17.87;;;9.40;;
51758;SDS011;66684;47.568;18.734;2023-03-23T08:23:36;16.20;;;9.02;;
51758;SDS011;66684;47.568;18.734;2023-03-23T08:26:05;14.48;;;7.65;;
51758;SDS011;66684;47.568;18.734;2023-03-23T08:28:33;12.75;;;8.13;;
51758;SDS011;66684;47.568;18.734;2023-03-23T08:31:00;15.32;;;8.60;;
51758;SDS011;66684;47.568;18.734;2023-03-23T08:33:32;14.77;;;7.80;;
51758;SDS011;66684;47.568;18.734;2023-03-23T08:35:59;13.10;;;7.65;;
51758;SDS011;66684;47.568;18.734;2023-03-23T08:38:26;14.80;;;8.25;;
51758;SDS011;66684;47.568;18.734;2023-03-23T08:40:57;13.60;;;8.15;;
51758;SDS011;66684;47.568;18.734;2023-03-23T08:43:28;19.33;;;8.13;;
51758;SDS011;66684;47.568;18.734;2023-03-23T08:45:54;13.98;;;7.82;;
51758;SDS011;66684;47.568;18.734;2023-03-23T08:48:20;11.90;;;7.68;;
51758;SDS011;66684;47.568;18.734;2023-03-23T08:50:48;10.65;;;7.20;;
51758;SDS011;66684;47.568;18.734;2023-03-23T08:53:15;15.80;;;7.90;;
51758;SDS011;66684;47.568;18.734;2023-03-23T08:55:41;12.90;;;7.97;;
51758;SDS011;66684;47.568;18.734;2023-03-23T08:58:08;11.10;;;7.53;;
51758;SDS011;66684;47.568;18.734;2023-03-23T09:00:34;10.65;;;7.50;;
51758;SDS011;66684;47.568;18.734;2023-03-23T09:03:01;13.13;;;7.55;;
51758;SDS011;66684;47.568;18.734;2023-03-23T09:05:28;10.25;;;6.95;;
51758;SDS011;66684;47.568;18.734;2023-03-23T09:07:55;13.77;;;7.78;;
51758;SDS011;66684;47.568;18.734;2023-03-23T09:10:25;15.30;;;7.18;;
51758;SDS011;66684;47.568;18.734;2023-03-23T09:12:52;13.27;;;7.65;;
51758;SDS011;66684;47.568;18.734;2023-03-23T09:15:19;11.12;;;7.43;;
51758;SDS011;66684;47.568;18.734;2023-03-23T09:17:46;10.45;;;6.93;;
51758;SDS011;66684;47.568;18.734;2023-03-23T09:20:14;9.73;;;7.05;;
51758;SDS011;66684;47.568;18.734;2023-03-23T09:22:43;9.45;;;6.75;;
51758;SDS011;66684;47.568;18.734;2023-03-23T09:25:11;12.68;;;7.28;;
51758;SDS011;66684;47.568;18.734;2023-03-23T09:27:39;8.60;;;6.47;;
51758;SDS011;66684;47.568;18.734;2023-03-23T09:30:06;17.02;;;6.78;;
51758;SDS011;66684;47.568;18.734;2023-03-23T09:32:34;9.98;;;6.20;;
51758;SDS011;66684;47.568;18.734;2023-03-23T09:35:01;15.43;;;6.30;;
51758;SDS011;66684;47.568;18.734;2023-03-23T09:37:28;12.18;;;5.50;;
51758;SDS011;66684;47.568;18.734;2023-03-23T09:39:55;8.45;;;5.45;;
51758;SDS011;66684;47.568;18.734;2023-03-23T09:45:11;8.07;;;5.07;;
51758;SDS011;66684;47.568;18.734;2023-03-23T09:47:49;7.57;;;4.78;;
51758;SDS011;66684;47.568;18.734;2023-03-23T09:50:19;7.07;;;4.05;;
51758;SDS011;66684;47.568;18.734;2023-03-23T09:52:56;6.80;;;3.97;;
51758;SDS011;66684;47.568;18.734;2023-03-23T09:55:24;6.00;;;3.10;;
51758;SDS011;66684;47.568;18.734;2023-03-23T10:01:00;5.05;;;2.12;;
51758;SDS011;66684;47.568;18.734;2023-03-23T10:03:34;5.10;;;3.05;;
51758;SDS011;66684;47.568;18.734;2023-03-23T10:06:04;8.52;;;3.25;;
51758;SDS011;66684;47.568;18.734;2023-03-23T10:08:33;7.12;;;3.10;;
51758;SDS011;66684;47.568;18.734;2023-03-23T10:11:04;9.55;;;3.55;;
51758;SDS011;66684;47.568;18.734;2023-03-23T10:16:40;8.75;;;4.32;;
51758;SDS011;66684;47.568;18.734;2023-03-23T10:22:18;9.75;;;3.90;;
51758;SDS011;66684;47.568;18.734;2023-03-23T10:24:51;6.18;;;3.33;;
51758;SDS011;66684;47.568;18.734;2023-03-23T10:30:37;8.50;;;4.12;;
51758;SDS011;66684;47.568;18.734;2023-03-23T10:33:18;6.15;;;4.12;;
51758;SDS011;66684;47.568;18.734;2023-03-23T10:38:29;6.43;;;4.55;;
51758;SDS011;66684;47.568;18.734;2023-03-23T10:41:02;6.53;;;4.15;;
51758;SDS011;66684;47.568;18.734;2023-03-23T10:43:32;8.32;;;4.45;;
51758;SDS011;66684;47.568;18.734;2023-03-23T10:46:22;9.70;;;4.45;;
51758;SDS011;66684;47.568;18.734;2023-03-23T10:48:55;8.73;;;4.10;;
51758;SDS011;66684;47.568;18.734;2023-03-23T10:51:27;6.07;;;3.90;;
51758;SDS011;66684;47.568;18.734;2023-03-23T10:54:00;8.82;;;4.12;;
51758;SDS011;66684;47.568;18.734;2023-03-23T10:56:38;10.57;;;4.12;;
51758;SDS011;66684;47.568;18.734;2023-03-23T11:01:38;4.82;;;3.12;;
51758;SDS011;66684;47.568;18.734;2023-03-23T11:04:10;6.57;;;3.37;;
51758;SDS011;66684;47.568;18.734;2023-03-23T11:06:45;5.68;;;3.35;;
51758;SDS011;66684;47.568;18.734;2023-03-23T11:09:14;6.78;;;3.45;;
51758;SDS011;66684;47.568;18.734;2023-03-23T11:11:47;5.60;;;2.75;;
51758;SDS011;66684;47.568;18.734;2023-03-23T11:14:35;8.50;;;2.33;;
51758;SDS011;66684;47.568;18.734;2023-03-23T11:17:05;4.62;;;1.95;;
51758;SDS011;66684;47.568;18.734;2023-03-23T11:19:45;4.65;;;2.20;;
51758;SDS011;66684;47.568;18.734;2023-03-23T11:22:24;4.72;;;2.08;;
51758;SDS011;66684;47.568;18.734;2023-03-23T11:24:55;4.10;;;2.15;;
51758;SDS011;66684;47.568;18.734;2023-03-23T11:27:26;3.08;;;1.80;;
51758;SDS011;66684;47.568;18.734;2023-03-23T11:29:54;4.22;;;2.00;;
51758;SDS011;66684;47.568;18.734;2023-03-23T11:32:24;3.58;;;1.60;;
51758;SDS011;66684;47.568;18.734;2023-03-23T11:34:56;3.78;;;1.80;;
51758;SDS011;66684;47.568;18.734;2023-03-23T11:40:23;3.70;;;1.35;;
51758;SDS011;66684;47.568;18.734;2023-03-23T11:43:12;8.93;;;4.72;;
51758;SDS011;66684;47.568;18.734;2023-03-23T11:45:45;3.30;;;1.67;;
51758;SDS011;66684;47.568;18.734;2023-03-23T11:51:05;2.58;;;1.33;;
51758;SDS011;66684;47.568;18.734;2023-03-23T11:56:44;4.35;;;1.70;;
51758;SDS011;66684;47.568;18.734;2023-03-23T11:59:14;2.40;;;1.37;;
51758;SDS011;66684;47.568;18.734;2023-03-23T12:01:51;3.87;;;1.10;;
51758;SDS011;66684;47.568;18.734;2023-03-23T12:14:59;4.43;;;1.65;;
51758;SDS011;66684;47.568;18.734;2023-03-23T12:29:04;2.67;;;1.10;;
51758;SDS011;66684;47.568;18.734;2023-03-23T12:35:17;5.50;;;1.40;;
51758;SDS011;66684;47.568;18.734;2023-03-23T12:40:33;5.20;;;1.37;;
51758;SDS011;66684;47.568;18.734;2023-03-23T12:48:48;5.28;;;1.50;;
51758;SDS011;66684;47.568;18.734;2023-03-23T12:51:24;1.92;;;1.00;;
51758;SDS011;66684;47.568;18.734;2023-03-23T12:56:51;3.65;;;1.45;;
51758;SDS011;66684;47.568;18.734;2023-03-23T13:00:46;2.05;;;1.10;;
51758;SDS011;66684;47.568;18.734;2023-03-23T13:02:32;1.62;;;0.98;;
51758;SDS011;66684;47.568;18.734;2023-03-23T13:05:13;4.05;;;1.25;;
51758;SDS011;66684;47.568;18.734;2023-03-23T13:07:43;1.70;;;0.80;;
51758;SDS011;66684;47.568;18.734;2023-03-23T13:12:46;3.33;;;1.05;;
51758;SDS011;66684;47.568;18.734;2023-03-23T13:15:33;5.97;;;1.08;;
51758;SDS011;66684;47.568;18.734;2023-03-23T13:18:07;3.95;;;1.30;;
51758;SDS011;66684;47.568;18.734;2023-03-23T13:20:53;3.30;;;1.20;;
51758;SDS011;66684;47.568;18.734;2023-03-23T13:23:40;4.15;;;1.20;;
51758;SDS011;66684;47.568;18.734;2023-03-23T13:26:13;12.43;;;1.48;;
51758;SDS011;66684;47.568;18.734;2023-03-23T13:31:25;4.78;;;1.35;;
51758;SDS011;66684;47.568;18.734;2023-03-23T13:34:01;3.10;;;1.40;;
51758;SDS011;66684;47.568;18.734;2023-03-23T13:36:37;7.05;;;1.05;;
51758;SDS011;66684;47.568;18.734;2023-03-23T13:39:06;4.78;;;1.48;;
51758;SDS011;66684;47.568;18.734;2023-03-23T13:41:59;6.32;;;1.37;;
51758;SDS011;66684;47.568;18.734;2023-03-23T13:44:38;2.75;;;1.00;;
51758;SDS011;66684;47.568;18.734;2023-03-23T13:47:14;2.30;;;1.23;;
51758;SDS011;66684;47.568;18.734;2023-03-23T13:49:46;1.75;;;0.88;;
51758;SDS011;66684;47.568;18.734;2023-03-23T13:52:21;2.67;;;1.30;;
51758;SDS011;66684;47.568;18.734;2023-03-23T13:54:50;2.08;;;0.85;;
51758;SDS011;66684;47.568;18.734;2023-03-23T13:57:23;3.05;;;1.10;;
51758;SDS011;66684;47.568;18.734;2023-03-23T14:00:10;2.85;;;1.02;;
51758;SDS011;66684;47.568;18.734;2023-03-23T14:02:49;3.00;;;0.90;;
51758;SDS011;66684;47.568;18.734;2023-03-23T14:08:09;2.10;;;1.08;;
51758;SDS011;66684;47.568;18.734;2023-03-23T14:13:20;2.95;;;1.02;;
51758;SDS011;66684;47.568;18.734;2023-03-23T14:16:00;10.27;;;1.30;;
51758;SDS011;66684;47.568;18.734;2023-03-23T14:18:39;2.25;;;1.10;;
51758;SDS011;66684;47.568;18.734;2023-03-23T14:21:11;3.05;;;1.27;;
51758;SDS011;66684;47.568;18.734;2023-03-23T14:23:41;2.65;;;1.00;;
51758;SDS011;66684;47.568;18.734;2023-03-23T14:26:11;3.30;;;1.35;;
51758;SDS011;66684;47.568;18.734;2023-03-23T14:28:42;3.47;;;1.70;;
51758;SDS011;66684;47.568;18.734;2023-03-23T14:31:20;6.93;;;1.27;;
51758;SDS011;66684;47.568;18.734;2023-03-23T14:33:49;3.97;;;1.10;;
51758;SDS011;66684;47.568;18.734;2023-03-23T14:36:20;8.00;;;1.60;;
51758;SDS011;66684;47.568;18.734;2023-03-23T14:38:46;4.72;;;1.30;;
51758;SDS011;66684;47.568;18.734;2023-03-23T14:41:12;3.97;;;1.25;;
51758;SDS011;66684;47.568;18.734;2023-03-23T14:43:38;2.58;;;1.20;;
51758;SDS011;66684;47.568;18.734;2023-03-23T14:46:06;3.85;;;1.30;;
51758;SDS011;66684;47.568;18.734;2023-03-23T14:48:34;2.65;;;1.02;;
51758;SDS011;66684;47.568;18.734;2023-03-23T14:51:03;1.65;;;1.00;;
51758;SDS011;66684;47.568;18.734;2023-03-23T14:53:36;2.85;;;1.30;;
51758;SDS011;66684;47.568;18.734;2023-03-23T14:56:11;2.27;;;1.20;;
51758;SDS011;66684;47.568;18.734;2023-03-23T14:58:43;6.05;;;1.45;;
51758;SDS011;66684;47.568;18.734;2023-03-23T15:01:14;3.47;;;1.00;;
51758;SDS011;66684;47.568;18.734;2023-03-23T15:04:19;6.60;;;1.40;;
51758;SDS011;66684;47.568;18.734;2023-03-23T15:06:39;2.17;;;1.08;;
51758;SDS011;66684;47.568;18.734;2023-03-23T15:09:13;4.12;;;1.10;;
51758;SDS011;66684;47.568;18.734;2023-03-23T15:11:49;3.30;;;0.95;;
51758;SDS011;66684;47.568;18.734;2023-03-23T15:14:27;6.25;;;1.50;;
51758;SDS011;66684;47.568;18.734;2023-03-23T15:16:56;2.50;;;1.23;;
51758;SDS011;66684;47.568;18.734;2023-03-23T15:19:26;7.68;;;1.02;;
51758;SDS011;66684;47.568;18.734;2023-03-23T15:22:04;3.67;;;1.37;;
51758;SDS011;66684;47.568;18.734;2023-03-23T15:24:33;3.58;;;1.10;;
51758;SDS011;66684;47.568;18.734;2023-03-23T15:27:12;5.53;;;0.80;;
51758;SDS011;66684;47.568;18.734;2023-03-23T15:32:41;6.55;;;1.87;;
51758;SDS011;66684;47.568;18.734;2023-03-23T15:35:17;5.37;;;3.45;;
51758;SDS011;66684;47.568;18.734;2023-03-23T15:37:46;5.60;;;1.70;;
51758;SDS011;66684;47.568;18.734;2023-03-23T15:40:15;2.10;;;1.10;;
51758;SDS011;66684;47.568;18.734;2023-03-23T15:42:46;3.70;;;1.85;;
51758;SDS011;66684;47.568;18.734;2023-03-23T15:50:10;4.05;;;1.08;;
51758;SDS011;66684;47.568;18.734;2023-03-23T15:52:37;2.22;;;1.10;;
51758;SDS011;66684;47.568;18.734;2023-03-23T15:55:03;7.12;;;1.10;;
51758;SDS011;66684;47.568;18.734;2023-03-23T15:57:29;7.07;;;1.37;;
51758;SDS011;66684;47.568;18.734;2023-03-23T15:59:55;4.60;;;1.90;;
51758;SDS011;66684;47.568;18.734;2023-03-23T16:02:21;3.12;;;1.70;;
51758;SDS011;66684;47.568;18.734;2023-03-23T16:04:49;3.90;;;1.67;;
51758;SDS011;66684;47.568;18.734;2023-03-23T16:07:17;3.25;;;1.27;;
51758;SDS011;66684;47.568;18.734;2023-03-23T16:09:46;3.85;;;1.00;;
51758;SDS011;66684;47.568;18.734;2023-03-23T16:12:12;2.78;;;1.05;;
51758;SDS011;66684;47.568;18.734;2023-03-23T16:14:39;2.37;;;1.20;;
51758;SDS011;66684;47.568;18.734;2023-03-23T16:17:07;2.30;;;1.05;;
51758;SDS011;66684;47.568;18.734;2023-03-23T16:19:38;9.50;;;1.73;;
51758;SDS011;66684;47.568;18.734;2023-03-23T16:22:04;3.67;;;1.83;;
51758;SDS011;66684;47.568;18.734;2023-03-23T16:24:30;11.80;;;2.37;;
51758;SDS011;66684;47.568;18.734;2023-03-23T16:26:56;4.15;;;2.30;;
51758;SDS011;66684;47.568;18.734;2023-03-23T16:29:21;5.37;;;1.90;;
51758;SDS011;66684;47.568;18.734;2023-03-23T16:31:47;4.60;;;1.50;;
51758;SDS011;66684;47.568;18.734;2023-03-23T16:34:13;4.57;;;1.92;;
51758;SDS011;66684;47.568;18.734;2023-03-23T16:36:39;4.30;;;2.15;;